createdAt,value
2017-06-12T00:00:07.985Z,58.4
2017-06-12T00:01:07.984Z,58.49
2017-06-12T00:02:07.984Z,58.56
2017-06-12T00:03:07.983Z,58.69
2017-06-12T00:04:07.982Z,58.56
2017-06-12T00:05:07.984Z,58.88
2017-06-12T00:06:07.981Z,59.14
2017-06-12T00:07:07.977Z,59.07
2017-06-12T00:08:07.675Z,58.65
2017-06-12T00:09:07.980Z,58.65
2017-06-12T00:10:07.979Z,58.88
2017-06-12T00:11:07.979Z,58.59
2017-06-12T00:12:07.975Z,58.78
2017-06-12T00:13:07.973Z,59.17
2017-06-12T00:14:07.972Z,58.97
2017-06-12T00:15:07.972Z,59.17
2017-06-12T00:16:07.972Z,59.17
2017-06-12T00:17:07.969Z,58.49
2017-06-12T00:18:07.971Z,58.3
2017-06-12T00:19:07.969Z,58.4
2017-06-12T00:20:07.967Z,58.47
2017-06-12T00:21:07.977Z,58.49
2017-06-12T00:22:07.965Z,58.3
2017-06-12T00:23:07.966Z,58.4
2017-06-12T00:24:07.964Z,58.3
2017-06-12T00:25:07.963Z,58.59
2017-06-12T00:26:07.962Z,58.3
2017-06-12T00:27:07.963Z,58.49
2017-06-12T00:28:07.965Z,58.59
2017-06-12T00:29:07.959Z,58.4
2017-06-12T00:30:07.957Z,58.85
2017-06-12T00:31:07.958Z,59.14
2017-06-12T00:32:07.956Z,59.04
2017-06-12T00:33:07.954Z,59.04
2017-06-12T00:34:07.953Z,59.17
2017-06-12T00:35:07.978Z,59.04
2017-06-12T00:36:07.649Z,58.85
2017-06-12T00:37:07.953Z,59.04
2017-06-12T00:38:07.950Z,59.17
2017-06-12T00:39:07.949Z,58.85
2017-06-12T00:40:07.949Z,58.56
2017-06-12T00:41:07.947Z,58.95
2017-06-12T00:42:07.946Z,58.88
2017-06-12T00:43:07.975Z,58.88
2017-06-12T00:44:07.944Z,59.17
2017-06-12T00:45:07.945Z,59.04
2017-06-12T00:46:07.942Z,59.27
2017-06-12T00:47:07.945Z,59.07
2017-06-12T00:48:07.942Z,59.17
2017-06-12T00:49:07.941Z,58.75
2017-06-12T00:50:07.940Z,58.3
2017-06-12T00:51:07.937Z,58.4
2017-06-12T00:52:07.937Z,59.17
2017-06-12T00:53:07.940Z,58.95
2017-06-12T00:54:07.934Z,58.88
2017-06-12T00:55:07.937Z,58.95
2017-06-12T00:56:07.933Z,58.97
2017-06-12T00:57:07.932Z,58.88
2017-06-12T00:58:07.630Z,58.88
2017-06-12T00:59:07.930Z,58.75
2017-06-12T01:00:07.930Z,58.97
2017-06-12T01:01:07.929Z,58.75
2017-06-12T01:02:07.928Z,59.14
2017-06-12T01:03:07.926Z,59.14
2017-06-12T01:04:07.925Z,59.04
2017-06-12T01:05:07.926Z,58.85
2017-06-12T01:06:07.923Z,59.81
2017-06-12T01:07:07.923Z,59.72
2017-06-12T01:08:07.618Z,59.43
2017-06-12T01:09:07.923Z,59.52
2017-06-12T01:10:07.921Z,59.52
2017-06-12T01:11:07.919Z,59.33
2017-06-12T01:12:07.917Z,59.62
2017-06-12T01:13:07.917Z,60.1
2017-06-12T01:14:07.916Z,59.91
2017-06-12T01:15:07.917Z,59.81
2017-06-12T01:16:07.914Z,59.91
2017-06-12T01:17:07.912Z,59.81
2017-06-12T01:18:07.912Z,59.72
2017-06-12T01:19:07.911Z,59.72
2017-06-12T01:20:07.917Z,59.72
2017-06-12T01:21:07.908Z,59.62
2017-06-12T01:22:07.604Z,59.52
2017-06-12T01:23:07.910Z,59.81
2017-06-12T01:24:07.904Z,59.72
2017-06-12T01:25:07.904Z,60
2017-06-12T01:26:07.903Z,59.81
2017-06-12T01:27:07.904Z,60
2017-06-12T01:28:07.900Z,59.91
2017-06-12T01:29:07.899Z,59.72
2017-06-12T01:30:07.899Z,59.91
2017-06-12T01:31:07.901Z,59.62
2017-06-12T01:32:07.595Z,59.81
2017-06-12T01:33:07.896Z,59.72
2017-06-12T01:34:07.895Z,59.72
2017-06-12T01:35:07.894Z,60
2017-06-12T01:36:07.589Z,59.91
2017-06-12T01:37:07.894Z,59.72
2017-06-12T01:38:07.891Z,59.91
2017-06-12T01:39:07.892Z,60.39
2017-06-12T01:40:07.889Z,60.3
2017-06-12T01:41:07.890Z,60.3
2017-06-12T01:42:07.887Z,60.1
2017-06-12T01:43:07.586Z,60.1
2017-06-12T01:44:07.885Z,60.1
2017-06-12T01:45:07.884Z,60.3
2017-06-12T01:46:07.881Z,60.49
2017-06-12T01:47:07.882Z,60.49
2017-06-12T01:48:07.880Z,60.68
2017-06-12T01:49:07.880Z,60.68
2017-06-12T01:50:07.880Z,60.39
2017-06-12T01:51:07.877Z,60.87
2017-06-12T01:52:07.573Z,60.68
2017-06-12T01:53:07.874Z,60.77
2017-06-12T01:54:07.873Z,60.87
2017-06-12T01:55:07.873Z,60.49
2017-06-12T01:56:07.566Z,60.77
2017-06-12T01:57:07.871Z,60.68
2017-06-12T01:58:07.866Z,60.77
2017-06-12T01:59:07.869Z,60.77
2017-06-12T02:00:07.562Z,60.97
2017-06-12T02:01:07.865Z,60.77
2017-06-12T02:02:07.867Z,60.77
2017-06-12T02:03:07.862Z,60.77
2017-06-12T02:04:07.861Z,61.07
2017-06-12T02:05:07.860Z,60.77
2017-06-12T02:06:07.858Z,60.58
2017-06-12T02:07:07.858Z,60.68
2017-06-12T02:08:07.552Z,60.68
2017-06-12T02:09:07.854Z,60.87
2017-06-12T02:10:07.855Z,60.97
2017-06-12T02:11:07.852Z,61.65
2017-06-12T02:12:07.852Z,61.16
2017-06-12T02:13:07.850Z,61.35
2017-06-12T02:14:07.549Z,61.45
2017-06-12T02:15:07.847Z,61.35
2017-06-12T02:16:07.847Z,61.35
2017-06-12T02:17:07.844Z,61.35
2017-06-12T02:18:07.843Z,61.35
2017-06-12T02:19:07.844Z,61.25
2017-06-12T02:20:07.538Z,61.45
2017-06-12T02:21:07.842Z,60.97
2017-06-12T02:22:07.841Z,61.13
2017-06-12T02:23:07.840Z,61.04
2017-06-12T02:24:07.836Z,61.45
2017-06-12T02:25:07.834Z,61.42
2017-06-12T02:26:07.531Z,61.61
2017-06-12T02:27:07.834Z,61.71
2017-06-12T02:28:07.834Z,61.52
2017-06-12T02:29:07.831Z,61.61
2017-06-12T02:30:07.830Z,61.71
2017-06-12T02:31:07.829Z,61.52
2017-06-12T02:32:07.524Z,61.71
2017-06-12T02:33:07.829Z,61.8
2017-06-12T02:34:07.824Z,61.42
2017-06-12T02:35:07.824Z,61.52
2017-06-12T02:36:07.519Z,61.52
2017-06-12T02:37:07.822Z,61.52
2017-06-12T02:38:07.820Z,61.61
2017-06-12T02:39:07.817Z,61.52
2017-06-12T02:40:07.817Z,61.61
2017-06-12T02:41:07.815Z,61.42
2017-06-12T02:42:07.816Z,61.8
2017-06-12T02:43:07.511Z,61.8
2017-06-12T02:44:07.509Z,61.71
2017-06-12T02:45:07.808Z,61.52
2017-06-12T02:46:07.808Z,61.61
2017-06-12T02:47:07.813Z,61.71
2017-06-12T02:48:07.805Z,61.71
2017-06-12T02:49:07.804Z,61.52
2017-06-12T02:50:07.809Z,62.29
2017-06-12T02:51:07.802Z,61.8
2017-06-12T02:52:07.497Z,61.61
2017-06-12T02:53:07.798Z,61.9
2017-06-12T02:54:07.802Z,61.9
2017-06-12T02:55:07.796Z,61.9
2017-06-12T02:56:07.800Z,61.52
2017-06-12T02:57:07.491Z,62.09
2017-06-12T02:58:07.795Z,62.09
2017-06-12T02:59:07.489Z,61.9
2017-06-12T03:00:07.490Z,61.71
2017-06-12T03:01:07.483Z,62
2017-06-12T03:02:07.485Z,62
2017-06-12T03:03:07.483Z,61.42
2017-06-12T03:04:07.481Z,61.8
2017-06-12T03:05:07.478Z,61.42
2017-06-12T03:06:07.478Z,61.8
2017-06-12T03:07:07.477Z,61.71
2017-06-12T03:08:07.779Z,61.8
2017-06-12T03:09:07.778Z,61.71
2017-06-12T03:10:07.472Z,61.61
2017-06-12T03:11:07.777Z,61.22
2017-06-12T03:12:07.773Z,61.71
2017-06-12T03:13:07.470Z,61.42
2017-06-12T03:14:07.771Z,61.13
2017-06-12T03:15:07.769Z,61.52
2017-06-12T03:16:07.767Z,61.22
2017-06-12T03:17:07.766Z,61.32
2017-06-12T03:18:07.765Z,61.32
2017-06-12T03:19:07.765Z,61.04
2017-06-12T03:20:07.765Z,61.04
2017-06-12T03:21:07.760Z,60.46
2017-06-12T03:22:07.760Z,60.77
2017-06-12T03:23:07.759Z,60.87
2017-06-12T03:24:07.758Z,60.49
2017-06-12T03:25:07.757Z,60.49
2017-06-12T03:26:07.756Z,60.39
2017-06-12T03:27:07.754Z,60.77
2017-06-12T03:28:07.751Z,60.87
2017-06-12T03:29:07.751Z,60.77
2017-06-12T03:30:07.752Z,60.77
2017-06-12T03:31:07.750Z,60.87
2017-06-12T03:32:07.748Z,60.1
2017-06-12T03:33:07.443Z,60.1
2017-06-12T03:34:07.443Z,59.52
2017-06-12T03:35:07.745Z,59.81
2017-06-12T03:36:07.744Z,59.72
2017-06-12T03:37:07.742Z,59.72
2017-06-12T03:38:07.741Z,59.72
2017-06-12T03:39:07.738Z,59.43
2017-06-12T03:40:07.435Z,59.81
2017-06-12T03:41:07.737Z,59.72
2017-06-12T03:42:07.736Z,59.43
2017-06-12T03:43:07.734Z,59.62
2017-06-12T03:44:07.739Z,59.62
2017-06-12T03:45:07.732Z,59.72
2017-06-12T03:46:07.732Z,59.72
2017-06-12T03:47:07.731Z,59.52
2017-06-12T03:48:07.426Z,59.81
2017-06-12T03:49:07.729Z,59.72
2017-06-12T03:50:07.727Z,59.62
2017-06-12T03:51:07.726Z,59.65
2017-06-12T03:52:07.726Z,59.52
2017-06-12T03:53:07.723Z,59.65
2017-06-12T03:54:07.722Z,59.75
2017-06-12T03:55:07.728Z,59.94
2017-06-12T03:56:07.740Z,59.84
2017-06-12T03:57:07.723Z,59.84
2017-06-12T03:58:07.723Z,60.03
2017-06-12T03:59:07.720Z,59.36
2017-06-12T04:00:07.718Z,59.65
2017-06-12T04:01:07.720Z,59.55
2017-06-12T04:02:07.815Z,59.65
2017-06-12T04:03:07.714Z,59.07
2017-06-12T04:04:07.715Z,59.2
2017-06-12T04:05:07.714Z,59.39
2017-06-12T04:06:07.713Z,59.1
2017-06-12T04:07:07.712Z,59.39
2017-06-12T04:08:07.711Z,59.1
2017-06-12T04:09:07.709Z,59
2017-06-12T04:10:07.708Z,58.91
2017-06-12T04:11:07.709Z,58.91
2017-06-12T04:12:07.706Z,58.72
2017-06-12T04:13:07.714Z,58.72
2017-06-12T04:14:07.707Z,58.75
2017-06-12T04:15:07.708Z,58.75
2017-06-12T04:16:07.712Z,58.75
2017-06-12T04:17:07.708Z,58.94
2017-06-12T04:18:07.402Z,58.97
2017-06-12T04:19:07.705Z,58.87
2017-06-12T04:20:07.704Z,58.77
2017-06-12T04:21:07.705Z,58.58
2017-06-12T04:22:07.703Z,58.42
2017-06-12T04:23:07.706Z,58.19
2017-06-12T04:24:07.705Z,58.51
2017-06-12T04:25:07.705Z,58.7
2017-06-12T04:26:07.709Z,58.12
2017-06-12T04:27:07.707Z,58.35
2017-06-12T04:28:07.705Z,58.06
2017-06-12T04:29:07.708Z,58.15
2017-06-12T04:30:07.405Z,57.79
2017-06-12T04:31:07.708Z,57.6
2017-06-12T04:32:07.714Z,58.12
2017-06-12T04:33:07.711Z,57.82
2017-06-12T04:34:07.711Z,57.76
2017-06-12T04:35:07.718Z,58.56
2017-06-12T04:36:07.715Z,57.59
2017-06-12T04:37:07.717Z,57.79
2017-06-12T04:38:07.415Z,57.79
2017-06-12T04:39:07.721Z,57.4
2017-06-12T04:40:07.421Z,57.23
2017-06-12T04:41:07.726Z,57.43
2017-06-12T04:42:07.728Z,57.43
2017-06-12T04:43:07.733Z,57.53
2017-06-12T04:44:07.735Z,57.62
2017-06-12T04:45:07.737Z,57.43
2017-06-12T04:46:07.738Z,57.43
2017-06-12T04:47:07.741Z,57.4
2017-06-12T04:48:07.752Z,57.3
2017-06-12T04:49:07.745Z,56.82
2017-06-12T04:50:07.748Z,57.2
2017-06-12T04:51:07.749Z,57.4
2017-06-12T04:52:07.752Z,56.82
2017-06-12T04:53:07.754Z,57.3
2017-06-12T04:54:07.757Z,57.3
2017-06-12T04:55:07.758Z,56.92
2017-06-12T04:56:07.759Z,57.4
2017-06-12T04:57:07.762Z,56.79
2017-06-12T04:58:07.766Z,56.88
2017-06-12T04:59:07.766Z,57.18
2017-06-12T05:00:07.768Z,57.37
2017-06-12T05:01:07.772Z,57.28
2017-06-12T05:02:07.471Z,57.34
2017-06-12T05:03:07.777Z,57.34
2017-06-12T05:04:07.774Z,57.54
2017-06-12T05:05:07.776Z,57.73
2017-06-12T05:06:07.477Z,57.15
2017-06-12T05:07:07.779Z,57.54
2017-06-12T05:08:07.782Z,57.34
2017-06-12T05:09:07.789Z,57.51
2017-06-12T05:10:07.784Z,57.31
2017-06-12T05:11:07.482Z,57.41
2017-06-12T05:12:07.786Z,57.31
2017-06-12T05:13:07.787Z,57.21
2017-06-12T05:14:07.485Z,57.6
2017-06-12T05:15:07.788Z,57.7
2017-06-12T05:16:07.792Z,57.7
2017-06-12T05:17:07.791Z,57.21
2017-06-12T05:18:07.791Z,57.31
2017-06-12T05:19:07.796Z,57.41
2017-06-12T05:20:07.796Z,57.6
2017-06-12T05:21:07.797Z,57.41
2017-06-12T05:22:07.494Z,57.41
2017-06-12T05:23:07.797Z,57.63
2017-06-12T05:24:07.497Z,57.41
2017-06-12T05:25:07.798Z,57.31
2017-06-12T05:26:07.498Z,57.51
2017-06-12T05:27:07.802Z,57.21
2017-06-12T05:28:07.805Z,57.31
2017-06-12T05:29:07.806Z,57.41
2017-06-12T05:30:07.503Z,57.31
2017-06-12T05:31:07.806Z,57.41
2017-06-12T05:32:07.808Z,57.79
2017-06-12T05:33:07.808Z,57.7
2017-06-12T05:34:07.808Z,56.93
2017-06-12T05:35:07.507Z,57.87
2017-06-12T05:36:07.812Z,57.57
2017-06-12T05:37:07.508Z,57.29
2017-06-12T05:38:07.813Z,57.67
2017-06-12T05:39:07.814Z,57.77
2017-06-12T05:40:07.814Z,57.89
2017-06-12T05:41:07.816Z,57.77
2017-06-12T05:42:07.816Z,57.6
2017-06-12T05:43:07.816Z,57.89
2017-06-12T05:44:07.816Z,57.79
2017-06-12T05:45:07.822Z,57.03
2017-06-12T05:46:07.818Z,57.7
2017-06-12T05:47:07.819Z,57.79
2017-06-12T05:48:07.821Z,57.31
2017-06-12T05:49:07.822Z,57.03
2017-06-12T05:50:07.519Z,57.7
2017-06-12T05:51:07.825Z,57.21
2017-06-12T05:52:07.824Z,57.21
2017-06-12T05:53:07.825Z,57.41
2017-06-12T05:54:07.826Z,57.41
2017-06-12T05:55:07.828Z,57.31
2017-06-12T05:56:07.828Z,57.79
2017-06-12T05:57:07.830Z,57.31
2017-06-12T05:58:07.827Z,57.31
2017-06-12T05:59:07.831Z,57.31
2017-06-12T06:00:07.530Z,57.31
2017-06-12T06:01:07.832Z,57.34
2017-06-12T06:02:07.532Z,57.24
2017-06-12T06:03:07.835Z,57.44
2017-06-12T06:04:07.838Z,57.24
2017-06-12T06:05:07.838Z,57.54
2017-06-12T06:06:07.838Z,57.63
2017-06-12T06:07:07.840Z,57.54
2017-06-12T06:08:07.844Z,57.24
2017-06-12T06:09:07.843Z,57.54
2017-06-12T06:10:07.845Z,57.54
2017-06-12T06:11:07.844Z,57.44
2017-06-12T06:12:07.846Z,57.73
2017-06-12T06:13:07.847Z,57.44
2017-06-12T06:14:07.852Z,57.34
2017-06-12T06:15:07.852Z,57.08
2017-06-12T06:16:07.855Z,57.37
2017-06-12T06:17:07.855Z,57.08
2017-06-12T06:18:07.859Z,56.88
2017-06-12T06:19:07.867Z,57.37
2017-06-12T06:20:07.859Z,57.18
2017-06-12T06:21:07.866Z,57.28
2017-06-12T06:22:07.864Z,57.37
2017-06-12T06:23:07.870Z,56.79
2017-06-12T06:24:07.866Z,57.05
2017-06-12T06:25:07.893Z,57.44
2017-06-12T06:26:07.869Z,57.44
2017-06-12T06:27:07.873Z,57.44
2017-06-12T06:28:07.871Z,57.44
2017-06-12T06:29:07.874Z,57.73
2017-06-12T06:30:07.572Z,57.24
2017-06-12T06:31:07.878Z,57.54
2017-06-12T06:32:07.879Z,57.44
2017-06-12T06:33:07.881Z,57.44
2017-06-12T06:34:07.881Z,57.24
2017-06-12T06:35:07.883Z,57.54
2017-06-12T06:36:07.884Z,56.76
2017-06-12T06:37:07.887Z,56.88
2017-06-12T06:38:07.887Z,57.18
2017-06-12T06:39:07.890Z,56.43
2017-06-12T06:40:07.892Z,56.75
2017-06-12T06:41:07.594Z,56.77
2017-06-12T06:42:07.899Z,56.71
2017-06-12T06:43:07.600Z,55.93
2017-06-12T06:44:07.907Z,56.15
2017-06-12T06:45:07.908Z,56.25
2017-06-12T06:46:07.608Z,55.69
2017-06-12T06:47:07.916Z,56.47
2017-06-12T06:48:07.921Z,55.57
2017-06-12T06:49:07.925Z,55.57
2017-06-12T06:50:07.929Z,55.28
2017-06-12T06:51:07.933Z,55.38
2017-06-12T06:52:07.937Z,55.28
2017-06-12T06:53:07.939Z,55.28
2017-06-12T06:54:07.943Z,55.02
2017-06-12T06:55:07.948Z,55.02
2017-06-12T06:56:07.953Z,54.85
2017-06-12T06:57:07.959Z,54.46
2017-06-12T06:58:07.962Z,54.2
2017-06-12T06:59:07.966Z,54.13
2017-06-12T07:00:07.971Z,53.74
2017-06-12T07:01:07.976Z,52.59
2017-06-12T07:02:07.982Z,52.72
2017-06-12T07:03:07.988Z,52.55
2017-06-12T07:04:07.995Z,50.82
2017-06-12T07:05:08.001Z,50.85
2017-06-12T07:06:08.008Z,49.49
2017-06-12T07:07:08.015Z,49.32
2017-06-12T07:08:08.025Z,49.32
2017-06-12T07:09:08.029Z,48.95
2017-06-12T07:10:08.037Z,48.56
2017-06-12T07:11:08.048Z,47.61
2017-06-12T07:12:08.052Z,46.92
2017-06-12T07:13:08.062Z,45.85
2017-06-12T07:14:08.070Z,44.51
2017-06-12T07:15:08.078Z,42.85
2017-06-12T07:16:07.783Z,42.38
2017-06-12T07:17:08.097Z,41.23
2017-06-12T07:18:08.106Z,37.14
2017-06-12T07:19:08.117Z,35.77
2017-06-12T07:20:08.131Z,35.5
2017-06-12T07:21:08.137Z,34.23
2017-06-12T07:22:08.147Z,33.62
2017-06-12T07:23:08.155Z,33.33
2017-06-12T07:24:08.165Z,32.94
2017-06-12T07:25:08.175Z,33.8
2017-06-12T07:26:08.183Z,34.29
2017-06-12T07:27:08.196Z,34.67
2017-06-12T07:28:07.900Z,34.47
2017-06-12T07:29:07.911Z,32.81
2017-06-12T07:30:08.224Z,33.89
2017-06-12T07:31:07.930Z,34.94
2017-06-12T07:32:08.243Z,34.94
2017-06-12T07:33:08.252Z,35.43
2017-06-12T07:34:08.261Z,35.43
2017-06-12T07:35:08.269Z,35.72
2017-06-12T07:36:07.975Z,36.31
2017-06-12T07:37:08.288Z,35.53
2017-06-12T07:38:08.296Z,35.45
2017-06-12T07:39:08.309Z,35.25
2017-06-12T07:40:08.316Z,35.55
2017-06-12T07:41:08.325Z,34.94
2017-06-12T07:42:08.333Z,35.24
2017-06-12T07:43:08.344Z,34.96
2017-06-12T07:44:08.352Z,34.96
2017-06-12T07:45:08.363Z,33.53
2017-06-12T07:46:08.371Z,32.76
2017-06-12T07:47:08.383Z,31.8
2017-06-12T07:48:08.091Z,31.23
2017-06-12T07:49:08.404Z,31.13
2017-06-12T07:50:08.413Z,31.42
2017-06-12T07:51:08.429Z,30.93
2017-06-12T07:52:08.436Z,29.97
2017-06-12T07:53:08.446Z,30.74
2017-06-12T07:54:08.456Z,30.93
2017-06-12T07:55:08.469Z,30.64
2017-06-12T07:56:08.480Z,30.55
2017-06-12T07:57:08.489Z,30.36
2017-06-12T07:58:08.501Z,29.31
2017-06-12T07:59:08.514Z,29.41
2017-06-12T08:00:08.527Z,28.93
2017-06-12T08:01:08.538Z,28.85
2017-06-12T08:02:08.552Z,29.14
2017-06-12T08:03:08.564Z,27.77
2017-06-12T08:04:08.275Z,27.88
2017-06-12T08:05:08.592Z,28.29
2017-06-12T08:06:08.604Z,27.01
2017-06-12T08:07:08.618Z,27.11
2017-06-12T08:08:08.630Z,26.92
2017-06-12T08:09:08.643Z,26.45
2017-06-12T08:10:08.657Z,26.26
2017-06-12T08:11:08.672Z,25.38
2017-06-12T08:12:08.384Z,25.18
2017-06-12T08:13:08.396Z,24.7
2017-06-12T08:14:08.717Z,24.8
2017-06-12T08:15:08.731Z,24.6
2017-06-12T08:16:08.745Z,24.3
2017-06-12T08:17:08.759Z,23.91
2017-06-12T08:18:08.774Z,24.49
2017-06-12T08:19:08.790Z,24.4
2017-06-12T08:20:08.806Z,24.49
2017-06-12T08:21:08.820Z,24.69
2017-06-12T08:22:08.835Z,24.88
2017-06-12T08:23:08.853Z,24.49
2017-06-12T08:24:08.869Z,24.41
2017-06-12T08:25:08.883Z,24.51
2017-06-12T08:26:08.898Z,25.01
2017-06-12T08:27:08.918Z,24.52
2017-06-12T08:28:08.929Z,24.04
2017-06-12T08:29:08.946Z,23.26
2017-06-12T08:30:08.962Z,23.05
2017-06-12T08:31:08.981Z,23.55
2017-06-12T08:32:08.999Z,23.16
2017-06-12T08:33:09.012Z,23.36
2017-06-12T08:34:09.035Z,23.16
2017-06-12T08:35:09.045Z,23.16
2017-06-12T08:36:09.059Z,23.06
2017-06-12T08:37:09.178Z,23.15
2017-06-12T08:38:09.093Z,23.33
2017-06-12T08:39:09.109Z,23.72
2017-06-12T08:40:09.121Z,24.4
2017-06-12T08:41:09.138Z,24.29
2017-06-12T08:42:09.152Z,24.37
2017-06-12T08:43:09.165Z,25.35
2017-06-12T08:44:09.177Z,25.15
2017-06-12T08:45:09.190Z,25.13
2017-06-12T08:46:09.202Z,25.9
2017-06-12T08:47:09.215Z,26.58
2017-06-12T08:48:09.227Z,26.75
2017-06-12T08:49:09.239Z,27.92
2017-06-12T08:50:09.250Z,27.62
2017-06-12T08:51:09.262Z,27.12
2017-06-12T08:52:09.284Z,27.42
2017-06-12T08:53:09.289Z,27.9
2017-06-12T08:54:09.298Z,28.58
2017-06-12T08:55:09.309Z,28.67
2017-06-12T08:56:09.019Z,28.86
2017-06-12T08:57:09.332Z,29.34
2017-06-12T08:58:09.040Z,29.22
2017-06-12T08:59:09.355Z,30.3
2017-06-12T09:00:09.063Z,30.77
2017-06-12T09:01:09.376Z,30.47
2017-06-12T09:02:09.394Z,30.47
2017-06-12T09:03:09.399Z,31.15
2017-06-12T09:04:09.412Z,31.43
2017-06-12T09:05:09.421Z,31.23
2017-06-12T09:06:09.435Z,31.31
2017-06-12T09:07:09.442Z,31.6
2017-06-12T09:08:09.451Z,32.39
2017-06-12T09:09:09.462Z,32.67
2017-06-12T09:10:09.473Z,32.76
2017-06-12T09:11:09.482Z,33.06
2017-06-12T09:12:09.492Z,32.67
2017-06-12T09:13:09.498Z,33.06
2017-06-12T09:14:09.508Z,32.96
2017-06-12T09:15:09.518Z,32.96
2017-06-12T09:16:09.525Z,33.34
2017-06-12T09:17:09.534Z,33.34
2017-06-12T09:18:09.547Z,33.25
2017-06-12T09:19:09.555Z,33.34
2017-06-12T09:20:09.559Z,32.96
2017-06-12T09:21:09.571Z,33.54
2017-06-12T09:22:09.273Z,33.15
2017-06-12T09:23:09.589Z,33.25
2017-06-12T09:24:09.593Z,33.34
2017-06-12T09:25:09.604Z,33.25
2017-06-12T09:26:09.608Z,33.26
2017-06-12T09:27:09.618Z,33.07
2017-06-12T09:28:09.626Z,33.15
2017-06-12T09:29:09.634Z,31.3
2017-06-12T09:30:09.643Z,31.2
2017-06-12T09:31:09.661Z,31.1
2017-06-12T09:32:09.357Z,31.79
2017-06-12T09:33:09.669Z,31.48
2017-06-12T09:34:09.675Z,32.55
2017-06-12T09:35:09.379Z,31.67
2017-06-12T09:36:09.690Z,30.7
2017-06-12T09:37:09.395Z,30.7
2017-06-12T09:38:09.705Z,30.31
2017-06-12T09:39:09.713Z,29.53
2017-06-12T09:40:09.720Z,29.24
2017-06-12T09:41:09.724Z,29.13
2017-06-12T09:42:09.733Z,29.52
2017-06-12T09:43:09.743Z,29.61
2017-06-12T09:44:09.748Z,29.32
2017-06-12T09:45:09.782Z,29.61
2017-06-12T09:46:09.764Z,29.79
2017-06-12T09:47:09.771Z,29.89
2017-06-12T09:48:09.471Z,30.18
2017-06-12T09:49:09.783Z,29.69
2017-06-12T09:50:09.790Z,30.18
2017-06-12T09:51:09.493Z,30.26
2017-06-12T09:52:09.803Z,30.26
2017-06-12T09:53:09.810Z,31.14
2017-06-12T09:54:09.816Z,31.13
2017-06-12T09:55:09.522Z,31.51
2017-06-12T09:56:09.526Z,31.61
2017-06-12T09:57:09.834Z,31.98
2017-06-12T09:58:09.842Z,32.28
2017-06-12T09:59:09.846Z,32.37
2017-06-12T10:00:09.853Z,32.96
2017-06-12T10:01:09.860Z,33.04
2017-06-12T10:02:09.866Z,32.75
2017-06-12T10:03:09.871Z,33.23
2017-06-12T10:04:09.877Z,32.64
2017-06-12T10:05:09.883Z,32.82
2017-06-12T10:06:09.888Z,33.01
2017-06-12T10:07:09.894Z,32.81
2017-06-12T10:08:09.899Z,32.32
2017-06-12T10:09:09.913Z,32.52
2017-06-12T10:10:09.605Z,32.13
2017-06-12T10:11:09.612Z,32.23
2017-06-12T10:12:09.621Z,32.42
2017-06-12T10:13:09.926Z,32.44
2017-06-12T10:14:09.639Z,32.15
2017-06-12T10:15:09.938Z,31.94
2017-06-12T10:16:09.943Z,31.65
2017-06-12T10:17:09.950Z,31.94
2017-06-12T10:18:09.977Z,32.71
2017-06-12T10:19:09.957Z,33.11
2017-06-12T10:20:09.962Z,33.38
2017-06-12T10:21:09.968Z,33.26
2017-06-12T10:22:09.970Z,34.04
2017-06-12T10:23:09.976Z,34.43
2017-06-12T10:24:09.980Z,34.23
2017-06-12T10:25:09.986Z,34.61
2017-06-12T10:26:09.988Z,34.22
2017-06-12T10:27:09.692Z,34.99
2017-06-12T10:28:09.999Z,34.61
2017-06-12T10:29:10.005Z,34.8
2017-06-12T10:30:10.008Z,34.61
2017-06-12T10:31:10.011Z,34.53
2017-06-12T10:32:10.016Z,34.33
2017-06-12T10:33:10.020Z,34.04
2017-06-12T10:34:10.024Z,33.65
2017-06-12T10:35:10.028Z,33.36
2017-06-12T10:36:10.032Z,33.07
2017-06-12T10:37:10.038Z,33.34
2017-06-12T10:38:10.043Z,33.64
2017-06-12T10:39:10.047Z,34.31
2017-06-12T10:40:10.051Z,34.41
2017-06-12T10:41:10.052Z,34.12
2017-06-12T10:42:10.062Z,33.34
2017-06-12T10:43:09.760Z,33.25
2017-06-12T10:44:10.064Z,33.44
2017-06-12T10:45:10.070Z,34.02
2017-06-12T10:46:10.075Z,33.92
2017-06-12T10:47:10.078Z,33.92
2017-06-12T10:48:10.085Z,33.34
2017-06-12T10:49:10.085Z,32.96
2017-06-12T10:50:10.092Z,32.86
2017-06-12T10:51:09.791Z,34.02
2017-06-12T10:52:10.099Z,34.89
2017-06-12T10:53:10.101Z,34.81
2017-06-12T10:54:10.107Z,34.53
2017-06-12T10:55:09.806Z,34.04
2017-06-12T10:56:09.811Z,33.18
2017-06-12T10:57:10.119Z,32.89
2017-06-12T10:58:10.120Z,32.49
2017-06-12T10:59:10.126Z,31.05
2017-06-12T11:00:10.130Z,31.62
2017-06-12T11:01:09.832Z,31.92
2017-06-12T11:02:09.834Z,32.68
2017-06-12T11:03:10.144Z,32.39
2017-06-12T11:04:10.147Z,32.78
2017-06-12T11:05:10.150Z,31.91
2017-06-12T11:06:10.155Z,31.52
2017-06-12T11:07:09.854Z,31.32
2017-06-12T11:08:10.163Z,31.62
2017-06-12T11:09:10.167Z,32
2017-06-12T11:10:09.868Z,32
2017-06-12T11:11:10.178Z,32.68
2017-06-12T11:12:10.177Z,32.67
2017-06-12T11:13:10.183Z,32.67
2017-06-12T11:14:10.185Z,32.47
2017-06-12T11:15:10.228Z,32.09
2017-06-12T11:16:10.194Z,32.57
2017-06-12T11:17:10.199Z,32.18
2017-06-12T11:18:10.201Z,31.7
2017-06-12T11:19:10.204Z,31.5
2017-06-12T11:20:10.210Z,31.89
2017-06-12T11:21:10.210Z,32.28
2017-06-12T11:22:10.216Z,32.18
2017-06-12T11:23:10.219Z,31.71
2017-06-12T11:24:10.223Z,31.62
2017-06-12T11:25:10.225Z,30.16
2017-06-12T11:26:10.232Z,29.77
2017-06-12T11:27:10.233Z,29.28
2017-06-12T11:28:10.239Z,29.77
2017-06-12T11:29:10.238Z,29.1
2017-06-12T11:30:09.941Z,29.4
2017-06-12T11:31:10.247Z,29.3
2017-06-12T11:32:10.251Z,29.4
2017-06-12T11:33:10.255Z,29.22
2017-06-12T11:34:10.259Z,30.19
2017-06-12T11:35:10.263Z,30.48
2017-06-12T11:36:10.265Z,30.48
2017-06-12T11:37:10.272Z,30.87
2017-06-12T11:38:10.273Z,31.07
2017-06-12T11:39:10.278Z,31.45
2017-06-12T11:40:10.284Z,31.35
2017-06-12T11:41:10.288Z,31.94
2017-06-12T11:42:10.292Z,31.55
2017-06-12T11:43:10.299Z,31.94
2017-06-12T11:44:10.299Z,32.52
2017-06-12T11:45:10.303Z,32.62
2017-06-12T11:46:10.308Z,32.62
2017-06-12T11:47:10.318Z,32.42
2017-06-12T11:48:10.318Z,32.24
2017-06-12T11:49:10.324Z,31.85
2017-06-12T11:50:10.328Z,31.57
2017-06-12T11:51:10.332Z,31.37
2017-06-12T11:52:10.337Z,31.58
2017-06-12T11:53:10.342Z,31.57
2017-06-12T11:54:10.348Z,32.35
2017-06-12T11:55:10.355Z,31.87
2017-06-12T11:56:10.354Z,31.87
2017-06-12T11:57:10.360Z,31.1
2017-06-12T11:58:10.061Z,30.91
2017-06-12T11:59:10.370Z,29.85
2017-06-12T12:00:10.375Z,30.52
2017-06-12T12:01:10.381Z,30.82
2017-06-12T12:02:10.386Z,31.21
2017-06-12T12:03:10.391Z,30.05
2017-06-12T12:04:10.399Z,30.35
2017-06-12T12:05:10.401Z,29.86
2017-06-12T12:06:10.408Z,30.25
2017-06-12T12:07:10.410Z,30.25
2017-06-12T12:08:10.115Z,30.35
2017-06-12T12:09:10.426Z,30.17
2017-06-12T12:10:10.127Z,30.26
2017-06-12T12:11:10.438Z,30.26
2017-06-12T12:12:10.443Z,29.78
2017-06-12T12:13:10.448Z,30.07
2017-06-12T12:14:10.480Z,29.97
2017-06-12T12:15:10.460Z,31.14
2017-06-12T12:16:10.465Z,29.76
2017-06-12T12:17:10.472Z,30.25
2017-06-12T12:18:10.476Z,30.25
2017-06-12T12:19:10.481Z,30.35
2017-06-12T12:20:10.486Z,31.22
2017-06-12T12:21:10.493Z,30.91
2017-06-12T12:22:10.497Z,30.33
2017-06-12T12:23:10.506Z,30.72
2017-06-12T12:24:10.510Z,31.88
2017-06-12T12:25:10.214Z,31.68
2017-06-12T12:26:10.521Z,31.1
2017-06-12T12:27:10.527Z,31.1
2017-06-12T12:28:10.534Z,31.19
2017-06-12T12:29:10.535Z,30.12
2017-06-12T12:30:10.541Z,29.93
2017-06-12T12:31:10.548Z,29.52
2017-06-12T12:32:10.554Z,29.91
2017-06-12T12:33:10.556Z,30.09
2017-06-12T12:34:10.560Z,30.48
2017-06-12T12:35:10.567Z,30.29
2017-06-12T12:36:10.572Z,30.87
2017-06-12T12:37:10.575Z,30.77
2017-06-12T12:38:10.581Z,30.97
2017-06-12T12:39:10.586Z,31.26
2017-06-12T12:40:10.591Z,31.35
2017-06-12T12:41:10.594Z,30.29
2017-06-12T12:42:10.602Z,30.01
2017-06-12T12:43:10.606Z,29.82
2017-06-12T12:44:10.305Z,29.91
2017-06-12T12:45:10.310Z,30.11
2017-06-12T12:46:10.617Z,29.72
2017-06-12T12:47:10.621Z,30.11
2017-06-12T12:48:10.324Z,29.91
2017-06-12T12:49:10.630Z,30.4
2017-06-12T12:50:10.634Z,30.21
2017-06-12T12:51:10.641Z,30.21
2017-06-12T12:52:10.647Z,29.91
2017-06-12T12:53:10.650Z,30
2017-06-12T12:54:10.654Z,30.19
2017-06-12T12:55:10.659Z,30.09
2017-06-12T12:56:10.662Z,30.38